sensor_id;sensor_type;location;lat;lon;timestamp;temperature;humidity
74178;DHT22;62540;48.456;-4.456;2023-05-28T00:01:58;14.43;72.99
74178;DHT22;62540;48.456;-4.456;2023-05-28T00:04:24;14.40;73.01
74178;DHT22;62540;48.456;-4.456;2023-05-28T00:06:50;14.39;73.31
74178;DHT22;62540;48.456;-4.456;2023-05-28T00:09:19;14.39;73.13
74178;DHT22;62540;48.456;-4.456;2023-05-28T00:11:44;14.37;73.20
74178;DHT22;62540;48.456;-4.456;2023-05-28T00:14:09;14.36;73.30
74178;DHT22;62540;48.456;-4.456;2023-05-28T00:16:35;14.33;73.52
74178;DHT22;62540;48.456;-4.456;2023-05-28T00:19:03;14.33;73.52
74178;DHT22;62540;48.456;-4.456;2023-05-28T00:21:28;14.36;72.96
74178;DHT22;62540;48.456;-4.456;2023-05-28T00:23:54;14.33;73.29
74178;DHT22;62540;48.456;-4.456;2023-05-28T00:26:19;14.30;73.78
74178;DHT22;62540;48.456;-4.456;2023-05-28T00:28:45;14.29;73.68
74178;DHT22;62540;48.456;-4.456;2023-05-28T00:31:10;14.25;73.59
74178;DHT22;62540;48.456;-4.456;2023-05-28T00:33:37;14.23;74.15
74178;DHT22;62540;48.456;-4.456;2023-05-28T00:36:02;14.16;74.07
74178;DHT22;62540;48.456;-4.456;2023-05-28T00:38:28;14.16;73.82
74178;DHT22;62540;48.456;-4.456;2023-05-28T00:40:53;14.12;74.68
74178;DHT22;62540;48.456;-4.456;2023-05-28T00:43:20;14.09;74.52
74178;DHT22;62540;48.456;-4.456;2023-05-28T00:45:47;14.08;74.41
74178;DHT22;62540;48.456;-4.456;2023-05-28T00:48:14;14.05;74.36
74178;DHT22;62540;48.456;-4.456;2023-05-28T00:50:39;14.08;74.16
74178;DHT22;62540;48.456;-4.456;2023-05-28T00:53:06;14.05;74.89
74178;DHT22;62540;48.456;-4.456;2023-05-28T00:55:31;14.05;74.59
74178;DHT22;62540;48.456;-4.456;2023-05-28T00:57:57;14.01;74.91
74178;DHT22;62540;48.456;-4.456;2023-05-28T01:00:31;13.95;75.71
74178;DHT22;62540;48.456;-4.456;2023-05-28T01:02:56;13.97;75.68
74178;DHT22;62540;48.456;-4.456;2023-05-28T01:05:22;13.95;75.51
74178;DHT22;62540;48.456;-4.456;2023-05-28T01:07:48;13.95;75.67
74178;DHT22;62540;48.456;-4.456;2023-05-28T01:10:14;13.94;75.62
74178;DHT22;62540;48.456;-4.456;2023-05-28T01:12:39;13.98;75.53
74178;DHT22;62540;48.456;-4.456;2023-05-28T01:15:08;13.97;75.59
74178;DHT22;62540;48.456;-4.456;2023-05-28T01:17:34;14.01;75.90
74178;DHT22;62540;48.456;-4.456;2023-05-28T01:20:00;13.99;75.39
74178;DHT22;62540;48.456;-4.456;2023-05-28T01:22:37;13.99;76.54
74178;DHT22;62540;48.456;-4.456;2023-05-28T01:25:07;14.01;75.66
74178;DHT22;62540;48.456;-4.456;2023-05-28T01:27:40;13.99;75.55
74178;DHT22;62540;48.456;-4.456;2023-05-28T01:30:07;14.01;75.53
74178;DHT22;62540;48.456;-4.456;2023-05-28T01:32:35;13.99;75.12
74178;DHT22;62540;48.456;-4.456;2023-05-28T01:35:02;13.98;75.48
74178;DHT22;62540;48.456;-4.456;2023-05-28T01:37:28;13.95;75.81
74178;DHT22;62540;48.456;-4.456;2023-05-28T01:39:54;13.92;76.25
74178;DHT22;62540;48.456;-4.456;2023-05-28T01:42:21;13.92;76.04
74178;DHT22;62540;48.456;-4.456;2023-05-28T01:44:48;13.95;75.81
74178;DHT22;62540;48.456;-4.456;2023-05-28T01:47:14;13.94;75.90
74178;DHT22;62540;48.456;-4.456;2023-05-28T01:49:40;13.90;76.01
74178;DHT22;62540;48.456;-4.456;2023-05-28T01:52:06;13.90;76.29
74178;DHT22;62540;48.456;-4.456;2023-05-28T01:54:32;13.89;76.32
74178;DHT22;62540;48.456;-4.456;2023-05-28T01:56:58;13.89;76.05
74178;DHT22;62540;48.456;-4.456;2023-05-28T01:59:23;13.88;76.20
74178;DHT22;62540;48.456;-4.456;2023-05-28T02:01:49;13.89;76.21
74178;DHT22;62540;48.456;-4.456;2023-05-28T02:04:16;13.86;75.87
74178;DHT22;62540;48.456;-4.456;2023-05-28T02:06:45;13.86;76.04
74178;DHT22;62540;48.456;-4.456;2023-05-28T02:09:11;13.86;76.47
74178;DHT22;62540;48.456;-4.456;2023-05-28T02:11:36;13.86;76.49
74178;DHT22;62540;48.456;-4.456;2023-05-28T02:14:02;13.85;76.41
74178;DHT22;62540;48.456;-4.456;2023-05-28T02:16:30;13.86;76.36
74178;DHT22;62540;48.456;-4.456;2023-05-28T02:18:55;13.86;76.36
74178;DHT22;62540;48.456;-4.456;2023-05-28T02:21:21;13.88;76.24
74178;DHT22;62540;48.456;-4.456;2023-05-28T02:23:48;13.85;76.23
74178;DHT22;62540;48.456;-4.456;2023-05-28T02:26:14;13.86;76.38
74178;DHT22;62540;48.456;-4.456;2023-05-28T02:28:41;13.85;76.52
74178;DHT22;62540;48.456;-4.456;2023-05-28T02:31:12;13.86;76.47
74178;DHT22;62540;48.456;-4.456;2023-05-28T02:33:39;13.85;76.77
74178;DHT22;62540;48.456;-4.456;2023-05-28T02:36:05;13.83;76.74
74178;DHT22;62540;48.456;-4.456;2023-05-28T02:38:32;13.83;76.49
74178;DHT22;62540;48.456;-4.456;2023-05-28T02:40:57;13.83;76.78
74178;DHT22;62540;48.456;-4.456;2023-05-28T02:43:22;13.82;77.11
74178;DHT22;62540;48.456;-4.456;2023-05-28T02:45:48;13.82;77.16
74178;DHT22;62540;48.456;-4.456;2023-05-28T02:48:13;13.81;77.15
74178;DHT22;62540;48.456;-4.456;2023-05-28T02:50:39;13.79;76.98
74178;DHT22;62540;48.456;-4.456;2023-05-28T02:53:04;13.78;77.16
74178;DHT22;62540;48.456;-4.456;2023-05-28T02:55:30;13.79;77.64
74178;DHT22;62540;48.456;-4.456;2023-05-28T02:57:55;13.79;77.25
74178;DHT22;62540;48.456;-4.456;2023-05-28T03:00:21;13.81;77.31
74178;DHT22;62540;48.456;-4.456;2023-05-28T03:02:47;13.82;77.39
74178;DHT22;62540;48.456;-4.456;2023-05-28T03:05:12;13.82;77.14
74178;DHT22;62540;48.456;-4.456;2023-05-28T03:07:37;13.82;77.28
74178;DHT22;62540;48.456;-4.456;2023-05-28T03:10:03;13.81;77.63
74178;DHT22;62540;48.456;-4.456;2023-05-28T03:12:29;13.79;77.35
74178;DHT22;62540;48.456;-4.456;2023-05-28T03:14:54;13.79;77.55
74178;DHT22;62540;48.456;-4.456;2023-05-28T03:17:20;13.82;77.30
74178;DHT22;62540;48.456;-4.456;2023-05-28T03:19:45;13.79;77.43
74178;DHT22;62540;48.456;-4.456;2023-05-28T03:22:10;13.82;77.56
74178;DHT22;62540;48.456;-4.456;2023-05-28T03:24:36;13.81;77.80
74178;DHT22;62540;48.456;-4.456;2023-05-28T03:27:04;13.81;77.67
74178;DHT22;62540;48.456;-4.456;2023-05-28T03:29:31;13.82;77.59
74178;DHT22;62540;48.456;-4.456;2023-05-28T03:31:56;13.79;77.53
74178;DHT22;62540;48.456;-4.456;2023-05-28T03:34:22;13.82;77.29
74178;DHT22;62540;48.456;-4.456;2023-05-28T03:36:49;13.82;77.60
74178;DHT22;62540;48.456;-4.456;2023-05-28T03:39:14;13.83;77.39
74178;DHT22;62540;48.456;-4.456;2023-05-28T03:41:40;13.82;77.34
74178;DHT22;62540;48.456;-4.456;2023-05-28T03:44:05;13.82;77.22
74178;DHT22;62540;48.456;-4.456;2023-05-28T03:46:31;13.82;77.58
74178;DHT22;62540;48.456;-4.456;2023-05-28T03:48:57;13.81;77.15
74178;DHT22;62540;48.456;-4.456;2023-05-28T03:51:22;13.79;77.35
74178;DHT22;62540;48.456;-4.456;2023-05-28T03:53:49;13.78;77.27
74178;DHT22;62540;48.456;-4.456;2023-05-28T03:56:14;13.78;77.36
74178;DHT22;62540;48.456;-4.456;2023-05-28T03:58:40;13.77;77.44
74178;DHT22;62540;48.456;-4.456;2023-05-28T04:01:05;13.75;77.16
74178;DHT22;62540;48.456;-4.456;2023-05-28T04:03:30;13.79;77.43
74178;DHT22;62540;48.456;-4.456;2023-05-28T04:05:56;13.75;77.08
74178;DHT22;62540;48.456;-4.456;2023-05-28T04:08:21;13.75;77.39
74178;DHT22;62540;48.456;-4.456;2023-05-28T04:10:47;13.72;77.71
74178;DHT22;62540;48.456;-4.456;2023-05-28T04:13:12;13.75;77.84
74178;DHT22;62540;48.456;-4.456;2023-05-28T04:15:37;13.75;77.45
74178;DHT22;62540;48.456;-4.456;2023-05-28T04:18:03;13.74;77.50
74178;DHT22;62540;48.456;-4.456;2023-05-28T04:20:29;13.68;77.72
74178;DHT22;62540;48.456;-4.456;2023-05-28T04:22:54;13.71;77.53
74178;DHT22;62540;48.456;-4.456;2023-05-28T04:25:20;13.71;77.40
74178;DHT22;62540;48.456;-4.456;2023-05-28T04:27:46;13.69;77.60
74178;DHT22;62540;48.456;-4.456;2023-05-28T04:30:12;13.72;77.43
74178;DHT22;62540;48.456;-4.456;2023-05-28T04:32:37;13.68;77.66
74178;DHT22;62540;48.456;-4.456;2023-05-28T04:35:07;13.67;78.04
74178;DHT22;62540;48.456;-4.456;2023-05-28T04:37:37;13.65;78.17
74178;DHT22;62540;48.456;-4.456;2023-05-28T04:40:06;13.67;77.55
74178;DHT22;62540;48.456;-4.456;2023-05-28T04:42:32;13.64;77.64
74178;DHT22;62540;48.456;-4.456;2023-05-28T04:44:58;13.64;77.85
74178;DHT22;62540;48.456;-4.456;2023-05-28T04:47:23;13.65;77.88
74178;DHT22;62540;48.456;-4.456;2023-05-28T04:49:49;13.65;77.87
74178;DHT22;62540;48.456;-4.456;2023-05-28T04:52:15;13.65;78.03
74178;DHT22;62540;48.456;-4.456;2023-05-28T04:54:42;13.65;77.80
74178;DHT22;62540;48.456;-4.456;2023-05-28T04:57:07;13.68;77.86
74178;DHT22;62540;48.456;-4.456;2023-05-28T04:59:33;13.71;77.74
74178;DHT22;62540;48.456;-4.456;2023-05-28T05:01:59;13.77;77.64
74178;DHT22;62540;48.456;-4.456;2023-05-28T05:04:25;13.88;77.80
74178;DHT22;62540;48.456;-4.456;2023-05-28T05:06:50;13.98;77.84
74178;DHT22;62540;48.456;-4.456;2023-05-28T05:09:16;14.18;77.88
74178;DHT22;62540;48.456;-4.456;2023-05-28T05:11:41;14.40;77.49
74178;DHT22;62540;48.456;-4.456;2023-05-28T05:14:06;14.57;76.97
74178;DHT22;62540;48.456;-4.456;2023-05-28T05:16:32;14.71;76.71
74178;DHT22;62540;48.456;-4.456;2023-05-28T05:18:58;14.84;76.25
74178;DHT22;62540;48.456;-4.456;2023-05-28T05:21:24;14.92;75.99
74178;DHT22;62540;48.456;-4.456;2023-05-28T05:23:50;15.11;76.00
74178;DHT22;62540;48.456;-4.456;2023-05-28T05:26:15;15.33;75.68
74178;DHT22;62540;48.456;-4.456;2023-05-28T05:28:44;15.56;75.35
74178;DHT22;62540;48.456;-4.456;2023-05-28T05:31:09;15.79;74.79
74178;DHT22;62540;48.456;-4.456;2023-05-28T05:33:39;16.04;74.27
74178;DHT22;62540;48.456;-4.456;2023-05-28T05:36:06;16.26;74.19
74178;DHT22;62540;48.456;-4.456;2023-05-28T05:38:32;16.53;73.41
74178;DHT22;62540;48.456;-4.456;2023-05-28T05:40:57;16.82;72.93
74178;DHT22;62540;48.456;-4.456;2023-05-28T05:43:22;17.09;72.59
74178;DHT22;62540;48.456;-4.456;2023-05-28T05:45:48;17.31;71.63
74178;DHT22;62540;48.456;-4.456;2023-05-28T05:48:13;17.47;70.81
74178;DHT22;62540;48.456;-4.456;2023-05-28T05:50:53;17.71;70.37
74178;DHT22;62540;48.456;-4.456;2023-05-28T05:53:23;18.02;68.46
74178;DHT22;62540;48.456;-4.456;2023-05-28T05:55:49;18.25;69.49
74178;DHT22;62540;48.456;-4.456;2023-05-28T05:58:15;18.50;68.41
74178;DHT22;62540;48.456;-4.456;2023-05-28T06:00:41;18.61;66.16
74178;DHT22;62540;48.456;-4.456;2023-05-28T06:03:07;18.78;67.66
74178;DHT22;62540;48.456;-4.456;2023-05-28T06:05:34;18.83;65.44
74178;DHT22;62540;48.456;-4.456;2023-05-28T06:08:00;18.94;65.76
74178;DHT22;62540;48.456;-4.456;2023-05-28T06:10:26;18.91;65.40
74178;DHT22;62540;48.456;-4.456;2023-05-28T06:12:51;19.01;65.28
74178;DHT22;62540;48.456;-4.456;2023-05-28T06:15:17;19.14;65.68
74178;DHT22;62540;48.456;-4.456;2023-05-28T06:17:42;19.26;64.88
74178;DHT22;62540;48.456;-4.456;2023-05-28T06:20:08;19.43;65.27
74178;DHT22;62540;48.456;-4.456;2023-05-28T06:22:34;19.56;63.99
74178;DHT22;62540;48.456;-4.456;2023-05-28T06:25:00;19.66;63.27
74178;DHT22;62540;48.456;-4.456;2023-05-28T06:27:26;19.66;62.69
74178;DHT22;62540;48.456;-4.456;2023-05-28T06:29:52;19.70;63.65
74178;DHT22;62540;48.456;-4.456;2023-05-28T06:32:18;19.69;62.66
74178;DHT22;62540;48.456;-4.456;2023-05-28T06:34:43;19.69;62.73
74178;DHT22;62540;48.456;-4.456;2023-05-28T06:37:09;19.69;62.16
74178;DHT22;62540;48.456;-4.456;2023-05-28T06:39:34;19.75;62.14
74178;DHT22;62540;48.456;-4.456;2023-05-28T06:42:00;19.85;62.17
74178;DHT22;62540;48.456;-4.456;2023-05-28T06:44:26;19.95;61.58
74178;DHT22;62540;48.456;-4.456;2023-05-28T06:46:51;20.15;60.60
74178;DHT22;62540;48.456;-4.456;2023-05-28T06:49:16;20.21;60.24
74178;DHT22;62540;48.456;-4.456;2023-05-28T06:51:42;20.25;60.67
74178;DHT22;62540;48.456;-4.456;2023-05-28T06:54:07;20.31;60.02
74178;DHT22;62540;48.456;-4.456;2023-05-28T06:56:33;20.31;60.30
74178;DHT22;62540;48.456;-4.456;2023-05-28T06:58:58;20.42;60.14
74178;DHT22;62540;48.456;-4.456;2023-05-28T07:01:23;20.53;59.28
74178;DHT22;62540;48.456;-4.456;2023-05-28T07:03:49;20.56;59.02
74178;DHT22;62540;48.456;-4.456;2023-05-28T07:06:15;20.68;59.24
74178;DHT22;62540;48.456;-4.456;2023-05-28T07:08:40;20.76;58.62
74178;DHT22;62540;48.456;-4.456;2023-05-28T07:11:12;20.86;58.86
74178;DHT22;62540;48.456;-4.456;2023-05-28T07:13:38;20.96;58.53
74178;DHT22;62540;48.456;-4.456;2023-05-28T07:16:05;21.08;58.12
74178;DHT22;62540;48.456;-4.456;2023-05-28T07:18:30;21.14;58.25
74178;DHT22;62540;48.456;-4.456;2023-05-28T07:20:56;21.21;58.05
74178;DHT22;62540;48.456;-4.456;2023-05-28T07:23:21;21.37;56.77
74178;DHT22;62540;48.456;-4.456;2023-05-28T07:25:46;21.44;56.80
74178;DHT22;62540;48.456;-4.456;2023-05-28T07:28:12;21.52;56.47
74178;DHT22;62540;48.456;-4.456;2023-05-28T07:30:37;21.62;56.30
74178;DHT22;62540;48.456;-4.456;2023-05-28T07:33:03;21.65;55.67
74178;DHT22;62540;48.456;-4.456;2023-05-28T07:35:28;21.72;55.59
74178;DHT22;62540;48.456;-4.456;2023-05-28T07:37:54;21.83;55.12
74178;DHT22;62540;48.456;-4.456;2023-05-28T07:40:20;21.83;54.72
74178;DHT22;62540;48.456;-4.456;2023-05-28T07:42:46;21.86;54.18
74178;DHT22;62540;48.456;-4.456;2023-05-28T07:45:12;22.02;54.43
74178;DHT22;62540;48.456;-4.456;2023-05-28T07:47:37;21.92;53.74
74178;DHT22;62540;48.456;-4.456;2023-05-28T07:50:03;21.89;53.50
74178;DHT22;62540;48.456;-4.456;2023-05-28T07:52:31;21.76;53.30
74178;DHT22;62540;48.456;-4.456;2023-05-28T07:54:57;21.75;53.79
74178;DHT22;62540;48.456;-4.456;2023-05-28T07:57:24;21.74;54.46
74178;DHT22;62540;48.456;-4.456;2023-05-28T07:59:50;21.82;53.50
74178;DHT22;62540;48.456;-4.456;2023-05-28T08:02:15;21.90;53.15
74178;DHT22;62540;48.456;-4.456;2023-05-28T08:04:41;21.97;53.51
74178;DHT22;62540;48.456;-4.456;2023-05-28T08:07:07;21.97;53.21
74178;DHT22;62540;48.456;-4.456;2023-05-28T08:09:32;22.12;53.68
74178;DHT22;62540;48.456;-4.456;2023-05-28T08:11:59;22.39;53.16
74178;DHT22;62540;48.456;-4.456;2023-05-28T08:14:24;22.69;52.50
74178;DHT22;62540;48.456;-4.456;2023-05-28T08:16:50;22.79;51.40
74178;DHT22;62540;48.456;-4.456;2023-05-28T08:19:15;22.78;51.40
74178;DHT22;62540;48.456;-4.456;2023-05-28T08:21:41;22.88;51.26
74178;DHT22;62540;48.456;-4.456;2023-05-28T08:24:07;23.05;50.91
74178;DHT22;62540;48.456;-4.456;2023-05-28T08:26:32;23.05;50.50
74178;DHT22;62540;48.456;-4.456;2023-05-28T08:28:57;23.19;51.19
74178;DHT22;62540;48.456;-4.456;2023-05-28T08:31:23;23.43;50.45
74178;DHT22;62540;48.456;-4.456;2023-05-28T08:33:48;23.61;49.81
74178;DHT22;62540;48.456;-4.456;2023-05-28T08:36:14;23.67;50.49
74178;DHT22;62540;48.456;-4.456;2023-05-28T08:38:39;23.77;50.29
74178;DHT22;62540;48.456;-4.456;2023-05-28T08:41:05;23.74;50.09
74178;DHT22;62540;48.456;-4.456;2023-05-28T08:43:30;23.71;50.01
74178;DHT22;62540;48.456;-4.456;2023-05-28T08:45:56;23.77;49.69
74178;DHT22;62540;48.456;-4.456;2023-05-28T08:48:22;23.88;49.78
74178;DHT22;62540;48.456;-4.456;2023-05-28T08:50:49;24.05;49.72
74178;DHT22;62540;48.456;-4.456;2023-05-28T08:53:22;24.26;49.26
74178;DHT22;62540;48.456;-4.456;2023-05-28T08:55:48;24.26;48.30
74178;DHT22;62540;48.456;-4.456;2023-05-28T08:58:16;24.14;48.27
74178;DHT22;62540;48.456;-4.456;2023-05-28T09:00:42;24.17;48.43
74178;DHT22;62540;48.456;-4.456;2023-05-28T09:03:07;24.28;48.07
74178;DHT22;62540;48.456;-4.456;2023-05-28T09:05:37;24.45;47.38
74178;DHT22;62540;48.456;-4.456;2023-05-28T09:08:07;24.45;47.39
74178;DHT22;62540;48.456;-4.456;2023-05-28T09:10:34;24.53;47.34
74178;DHT22;62540;48.456;-4.456;2023-05-28T09:13:00;24.56;46.80
74178;DHT22;62540;48.456;-4.456;2023-05-28T09:15:26;24.63;47.13
74178;DHT22;62540;48.456;-4.456;2023-05-28T09:17:51;24.69;46.77
74178;DHT22;62540;48.456;-4.456;2023-05-28T09:20:17;24.73;46.62
74178;DHT22;62540;48.456;-4.456;2023-05-28T09:22:45;24.80;46.35
74178;DHT22;62540;48.456;-4.456;2023-05-28T09:25:11;24.86;46.49
74178;DHT22;62540;48.456;-4.456;2023-05-28T09:27:37;24.93;46.66
74178;DHT22;62540;48.456;-4.456;2023-05-28T09:30:04;24.97;46.77
74178;DHT22;62540;48.456;-4.456;2023-05-28T09:32:35;24.91;45.89
74178;DHT22;62540;48.456;-4.456;2023-05-28T09:35:03;25.04;46.51
74178;DHT22;62540;48.456;-4.456;2023-05-28T09:37:29;25.17;45.47
74178;DHT22;62540;48.456;-4.456;2023-05-28T09:40:05;25.13;46.12
74178;DHT22;62540;48.456;-4.456;2023-05-28T09:42:38;25.28;46.50
74178;DHT22;62540;48.456;-4.456;2023-05-28T09:45:11;25.47;45.61
74178;DHT22;62540;48.456;-4.456;2023-05-28T09:47:44;25.48;45.14
74178;DHT22;62540;48.456;-4.456;2023-05-28T09:50:10;25.44;45.49
74178;DHT22;62540;48.456;-4.456;2023-05-28T09:52:39;25.42;45.63
74178;DHT22;62540;48.456;-4.456;2023-05-28T09:55:07;25.55;45.14
74178;DHT22;62540;48.456;-4.456;2023-05-28T09:57:35;25.54;45.52
74178;DHT22;62540;48.456;-4.456;2023-05-28T10:00:05;25.47;45.49
74178;DHT22;62540;48.456;-4.456;2023-05-28T10:05:43;25.75;45.61
74178;DHT22;62540;48.456;-4.456;2023-05-28T10:08:15;25.88;44.66
74178;DHT22;62540;48.456;-4.456;2023-05-28T10:10:41;25.86;44.39
74178;DHT22;62540;48.456;-4.456;2023-05-28T10:13:07;25.79;44.75
74178;DHT22;62540;48.456;-4.456;2023-05-28T10:15:35;25.76;45.41
74178;DHT22;62540;48.456;-4.456;2023-05-28T10:18:02;25.85;45.14
74178;DHT22;62540;48.456;-4.456;2023-05-28T10:20:28;25.86;44.95
74178;DHT22;62540;48.456;-4.456;2023-05-28T10:22:55;25.96;45.32
74178;DHT22;62540;48.456;-4.456;2023-05-28T10:25:21;26.04;44.98
74178;DHT22;62540;48.456;-4.456;2023-05-28T10:27:46;26.02;44.88
74178;DHT22;62540;48.456;-4.456;2023-05-28T10:30:30;25.93;44.89
74178;DHT22;62540;48.456;-4.456;2023-05-28T10:32:57;26.03;45.36
74178;DHT22;62540;48.456;-4.456;2023-05-28T10:35:22;26.03;44.99
74178;DHT22;62540;48.456;-4.456;2023-05-28T10:37:47;25.99;45.20
74178;DHT22;62540;48.456;-4.456;2023-05-28T10:40:22;26.10;45.02
74178;DHT22;62540;48.456;-4.456;2023-05-28T10:42:48;26.06;44.74
74178;DHT22;62540;48.456;-4.456;2023-05-28T10:45:13;26.04;44.63
74178;DHT22;62540;48.456;-4.456;2023-05-28T10:47:41;26.04;45.63
74178;DHT22;62540;48.456;-4.456;2023-05-28T10:50:25;26.22;44.72
74178;DHT22;62540;48.456;-4.456;2023-05-28T10:53:06;26.30;44.52
74178;DHT22;62540;48.456;-4.456;2023-05-28T10:55:48;26.27;44.79
74178;DHT22;62540;48.456;-4.456;2023-05-28T10:58:22;26.36;45.09
74178;DHT22;62540;48.456;-4.456;2023-05-28T11:00:48;26.32;44.26
74178;DHT22;62540;48.456;-4.456;2023-05-28T11:03:14;26.26;43.48
74178;DHT22;62540;48.456;-4.456;2023-05-28T11:05:39;26.22;44.34
74178;DHT22;62540;48.456;-4.456;2023-05-28T11:08:05;26.12;43.99
74178;DHT22;62540;48.456;-4.456;2023-05-28T11:10:32;26.12;44.63
74178;DHT22;62540;48.456;-4.456;2023-05-28T11:12:58;26.06;44.62
74178;DHT22;62540;48.456;-4.456;2023-05-28T11:15:24;26.07;45.14
74178;DHT22;62540;48.456;-4.456;2023-05-28T11:17:49;26.00;45.23
74178;DHT22;62540;48.456;-4.456;2023-05-28T11:20:19;26.09;44.75
74178;DHT22;62540;48.456;-4.456;2023-05-28T11:22:45;25.97;44.17
74178;DHT22;62540;48.456;-4.456;2023-05-28T11:25:11;25.96;45.11
74178;DHT22;62540;48.456;-4.456;2023-05-28T11:27:38;26.00;45.07
74178;DHT22;62540;48.456;-4.456;2023-05-28T11:30:13;26.04;44.65
74178;DHT22;62540;48.456;-4.456;2023-05-28T11:32:40;25.90;44.34
74178;DHT22;62540;48.456;-4.456;2023-05-28T11:35:09;25.82;44.74
74178;DHT22;62540;48.456;-4.456;2023-05-28T11:37:36;25.89;44.37
74178;DHT22;62540;48.456;-4.456;2023-05-28T11:40:04;25.64;44.65
74178;DHT22;62540;48.456;-4.456;2023-05-28T11:42:31;25.54;45.28
74178;DHT22;62540;48.456;-4.456;2023-05-28T11:44:57;25.71;46.42
74178;DHT22;62540;48.456;-4.456;2023-05-28T11:47:23;25.81;44.91
74178;DHT22;62540;48.456;-4.456;2023-05-28T11:49:50;25.81;44.73
74178;DHT22;62540;48.456;-4.456;2023-05-28T11:52:19;25.89;44.85
74178;DHT22;62540;48.456;-4.456;2023-05-28T11:54:47;25.81;45.44
74178;DHT22;62540;48.456;-4.456;2023-05-28T11:57:20;25.88;45.30
74178;DHT22;62540;48.456;-4.456;2023-05-28T11:59:59;25.96;45.24
74178;DHT22;62540;48.456;-4.456;2023-05-28T12:02:25;26.03;45.07
74178;DHT22;62540;48.456;-4.456;2023-05-28T12:05:01;26.06;44.76
74178;DHT22;62540;48.456;-4.456;2023-05-28T12:07:31;26.06;44.50
74178;DHT22;62540;48.456;-4.456;2023-05-28T12:10:04;26.02;44.94
74178;DHT22;62540;48.456;-4.456;2023-05-28T12:12:29;26.03;44.84
74178;DHT22;62540;48.456;-4.456;2023-05-28T12:14:57;25.95;44.74
74178;DHT22;62540;48.456;-4.456;2023-05-28T12:17:24;25.95;44.31
74178;DHT22;62540;48.456;-4.456;2023-05-28T12:19:49;25.96;44.95
74178;DHT22;62540;48.456;-4.456;2023-05-28T12:22:15;26.00;43.94
74178;DHT22;62540;48.456;-4.456;2023-05-28T12:24:49;25.92;44.75
74178;DHT22;62540;48.456;-4.456;2023-05-28T12:27:15;25.97;44.89
74178;DHT22;62540;48.456;-4.456;2023-05-28T12:29:40;25.95;44.90
74178;DHT22;62540;48.456;-4.456;2023-05-28T12:32:05;25.86;44.77
74178;DHT22;62540;48.456;-4.456;2023-05-28T12:34:31;26.03;45.55
74178;DHT22;62540;48.456;-4.456;2023-05-28T12:36:56;26.09;44.48
74178;DHT22;62540;48.456;-4.456;2023-05-28T12:39:22;26.04;44.74
74178;DHT22;62540;48.456;-4.456;2023-05-28T12:41:47;26.00;44.78
74178;DHT22;62540;48.456;-4.456;2023-05-28T12:44:13;26.04;44.77
74178;DHT22;62540;48.456;-4.456;2023-05-28T12:46:39;25.97;44.45
74178;DHT22;62540;48.456;-4.456;2023-05-28T12:49:05;25.86;44.68
74178;DHT22;62540;48.456;-4.456;2023-05-28T12:51:30;25.82;44.35
74178;DHT22;62540;48.456;-4.456;2023-05-28T12:53:57;25.71;44.78
74178;DHT22;62540;48.456;-4.456;2023-05-28T12:56:25;25.71;44.87
74178;DHT22;62540;48.456;-4.456;2023-05-28T12:58:51;25.64;45.21
74178;DHT22;62540;48.456;-4.456;2023-05-28T13:01:17;25.61;44.75
74178;DHT22;62540;48.456;-4.456;2023-05-28T13:03:43;25.59;45.11
74178;DHT22;62540;48.456;-4.456;2023-05-28T13:06:08;25.75;45.85
74178;DHT22;62540;48.456;-4.456;2023-05-28T13:08:34;25.83;44.22
74178;DHT22;62540;48.456;-4.456;2023-05-28T13:10:59;25.86;44.37
74178;DHT22;62540;48.456;-4.456;2023-05-28T13:13:25;25.76;44.41
74178;DHT22;62540;48.456;-4.456;2023-05-28T13:15:50;25.64;44.08
74178;DHT22;62540;48.456;-4.456;2023-05-28T13:18:15;25.48;45.16
74178;DHT22;62540;48.456;-4.456;2023-05-28T13:20:41;25.51;45.48
74178;DHT22;62540;48.456;-4.456;2023-05-28T13:23:06;25.52;45.23
74178;DHT22;62540;48.456;-4.456;2023-05-28T13:25:32;25.57;45.00
74178;DHT22;62540;48.456;-4.456;2023-05-28T13:27:57;25.59;44.67
74178;DHT22;62540;48.456;-4.456;2023-05-28T13:30:23;25.55;44.82
74178;DHT22;62540;48.456;-4.456;2023-05-28T13:32:48;25.39;45.44
74178;DHT22;62540;48.456;-4.456;2023-05-28T13:35:15;25.37;45.53
74178;DHT22;62540;48.456;-4.456;2023-05-28T13:37:40;25.26;45.10
74178;DHT22;62540;48.456;-4.456;2023-05-28T13:40:07;25.17;45.44
74178;DHT22;62540;48.456;-4.456;2023-05-28T13:42:38;25.16;45.69
74178;DHT22;62540;48.456;-4.456;2023-05-28T13:45:05;25.10;45.61
74178;DHT22;62540;48.456;-4.456;2023-05-28T13:47:30;25.02;44.93
74178;DHT22;62540;48.456;-4.456;2023-05-28T13:49:56;24.79;45.32
74178;DHT22;62540;48.456;-4.456;2023-05-28T13:52:21;24.59;45.57
74178;DHT22;62540;48.456;-4.456;2023-05-28T13:54:48;24.49;46.08
74178;DHT22;62540;48.456;-4.456;2023-05-28T13:57:13;24.38;46.18
74178;DHT22;62540;48.456;-4.456;2023-05-28T13:59:39;24.32;46.53
74178;DHT22;62540;48.456;-4.456;2023-05-28T14:02:04;24.26;46.98
74178;DHT22;62540;48.456;-4.456;2023-05-28T14:04:30;24.31;46.64
74178;DHT22;62540;48.456;-4.456;2023-05-28T14:06:55;24.24;46.76
74178;DHT22;62540;48.456;-4.456;2023-05-28T14:09:20;24.15;47.32
74178;DHT22;62540;48.456;-4.456;2023-05-28T14:11:46;24.11;46.99
74178;DHT22;62540;48.456;-4.456;2023-05-28T14:14:12;24.02;46.78
74178;DHT22;62540;48.456;-4.456;2023-05-28T14:16:38;23.90;46.99
74178;DHT22;62540;48.456;-4.456;2023-05-28T14:19:04;23.78;47.28
74178;DHT22;62540;48.456;-4.456;2023-05-28T14:21:29;23.69;47.70
74178;DHT22;62540;48.456;-4.456;2023-05-28T14:23:54;23.59;47.56
74178;DHT22;62540;48.456;-4.456;2023-05-28T14:26:20;23.50;47.84
74178;DHT22;62540;48.456;-4.456;2023-05-28T14:28:45;23.42;47.87
74178;DHT22;62540;48.456;-4.456;2023-05-28T14:31:10;23.34;47.96
74178;DHT22;62540;48.456;-4.456;2023-05-28T14:33:36;23.26;47.82
74178;DHT22;62540;48.456;-4.456;2023-05-28T14:36:01;23.24;47.90
74178;DHT22;62540;48.456;-4.456;2023-05-28T14:38:27;23.23;48.30
74178;DHT22;62540;48.456;-4.456;2023-05-28T14:40:52;23.20;48.50
74178;DHT22;62540;48.456;-4.456;2023-05-28T14:43:18;23.15;48.85
74178;DHT22;62540;48.456;-4.456;2023-05-28T14:45:43;23.19;48.68
74178;DHT22;62540;48.456;-4.456;2023-05-28T14:48:09;23.19;48.64
74178;DHT22;62540;48.456;-4.456;2023-05-28T14:50:34;23.19;48.40
74178;DHT22;62540;48.456;-4.456;2023-05-28T14:53:00;23.03;48.80
74178;DHT22;62540;48.456;-4.456;2023-05-28T14:55:25;23.03;49.09
74178;DHT22;62540;48.456;-4.456;2023-05-28T14:57:50;23.06;49.72
74178;DHT22;62540;48.456;-4.456;2023-05-28T15:00:16;23.01;49.39
74178;DHT22;62540;48.456;-4.456;2023-05-28T15:02:42;22.95;49.29
74178;DHT22;62540;48.456;-4.456;2023-05-28T15:05:08;22.85;49.80
74178;DHT22;62540;48.456;-4.456;2023-05-28T15:07:34;22.82;50.52
74178;DHT22;62540;48.456;-4.456;2023-05-28T15:10:00;22.84;50.92
74178;DHT22;62540;48.456;-4.456;2023-05-28T15:12:26;22.79;50.81
74178;DHT22;62540;48.456;-4.456;2023-05-28T15:14:51;22.76;51.04